createdAt,value
2019-04-03T00:00:55.139Z,3.03
2019-04-03T00:01:59.651Z,2.67
2019-04-03T00:03:04.917Z,2.70
2019-04-03T00:04:09.586Z,2.75
2019-04-03T00:05:14.458Z,2.83
2019-04-03T00:06:18.949Z,2.67
2019-04-03T00:07:23.610Z,2.92
2019-04-03T00:08:28.098Z,3.70
2019-04-03T00:09:32.711Z,2.85
2019-04-03T00:10:38.148Z,2.87
2019-04-03T00:11:43.198Z,3.00
2019-04-03T00:12:47.865Z,2.63
2019-04-03T00:13:52.506Z,3.30
2019-04-03T00:14:57.032Z,4.78
2019-04-03T00:16:01.555Z,3.10
2019-04-03T00:17:06.039Z,3.17
2019-04-03T00:18:10.569Z,4.80
2019-04-03T00:19:15.894Z,3.07
2019-04-03T00:20:21.760Z,3.20
2019-04-03T00:21:26.388Z,3.20
2019-04-03T00:22:31.224Z,3.80
2019-04-03T00:23:35.734Z,3.90
2019-04-03T00:24:40.299Z,3.40
2019-04-03T00:25:44.818Z,3.50
2019-04-03T00:26:51.993Z,3.65
2019-04-03T00:27:55.639Z,3.20
2019-04-03T00:29:00.183Z,4.08
2019-04-03T00:30:07.269Z,3.65
2019-04-03T00:31:11.828Z,3.47
2019-04-03T00:32:16.625Z,3.77
2019-04-03T00:33:23.039Z,3.37
2019-04-03T00:34:27.451Z,4.47
2019-04-03T00:35:31.987Z,4.07
2019-04-03T00:36:36.622Z,4.50
2019-04-03T00:37:41.178Z,4.20
2019-04-03T00:38:45.808Z,4.97
2019-04-03T00:39:50.344Z,4.95
2019-04-03T00:40:54.980Z,3.60
2019-04-03T00:41:59.677Z,3.87
2019-04-03T00:43:04.176Z,4.50
2019-04-03T00:44:08.718Z,4.10
2019-04-03T00:45:13.517Z,3.50
2019-04-03T00:46:17.996Z,4.22
2019-04-03T00:47:25.109Z,3.80
2019-04-03T00:48:28.901Z,4.95
2019-04-03T00:49:33.434Z,4.70
2019-04-03T00:50:37.965Z,4.30
2019-04-03T00:51:42.545Z,3.40
2019-04-03T00:52:47.242Z,4.07
2019-04-03T00:53:51.732Z,3.17
2019-04-03T00:54:56.632Z,3.57
2019-04-03T00:56:01.706Z,3.53
2019-04-03T00:57:06.500Z,3.90
2019-04-03T00:58:36.028Z,3.60
2019-04-03T00:59:40.568Z,3.40
2019-04-03T01:00:45.082Z,6.03
2019-04-03T01:01:49.563Z,3.80
2019-04-03T01:02:54.084Z,4.22
2019-04-03T01:03:59.133Z,4.10
2019-04-03T01:05:04.530Z,4.05
2019-04-03T01:06:09.391Z,3.80
2019-04-03T01:07:13.874Z,3.92
2019-04-03T01:08:18.530Z,3.93
2019-04-03T01:09:23.184Z,3.90
2019-04-03T01:10:29.319Z,4.77
2019-04-03T01:11:33.994Z,4.17
2019-04-03T01:12:38.478Z,4.20
2019-04-03T01:13:43.037Z,4.20
2019-04-03T01:14:47.582Z,4.90
2019-04-03T01:15:52.291Z,4.63
2019-04-03T01:16:56.905Z,4.83
2019-04-03T01:18:04.275Z,5.03
2019-04-03T01:19:07.597Z,4.20
2019-04-03T01:20:12.263Z,5.80
2019-04-03T01:21:16.748Z,4.33
2019-04-03T01:22:21.203Z,4.17
2019-04-03T01:23:25.730Z,4.90
2019-04-03T01:24:30.207Z,4.42
2019-04-03T01:25:34.690Z,4.23
2019-04-03T01:26:40.872Z,6.67
2019-04-03T01:27:45.417Z,4.22
2019-04-03T01:28:49.951Z,4.83
2019-04-03T01:29:54.456Z,4.20
2019-04-03T01:30:59.000Z,4.17
2019-04-03T01:32:03.674Z,3.87
2019-04-03T01:33:08.320Z,4.05
2019-04-03T01:34:13.278Z,4.37
2019-04-03T01:35:17.955Z,4.40
2019-04-03T01:36:22.774Z,4.57
2019-04-03T01:37:27.295Z,4.20
2019-04-03T01:38:31.774Z,4.60
2019-04-03T01:39:36.321Z,3.85
2019-04-03T01:40:40.802Z,4.55
2019-04-03T01:41:45.301Z,4.83
2019-04-03T01:42:52.425Z,4.22
2019-04-03T01:43:56.244Z,4.67
2019-04-03T01:45:00.960Z,4.15
2019-04-03T01:46:05.439Z,4.30
2019-04-03T01:47:09.917Z,5.07
2019-04-03T01:48:14.417Z,5.10
2019-04-03T01:49:18.884Z,3.97
2019-04-03T01:50:23.375Z,4.43
2019-04-03T01:51:29.717Z,4.50
2019-04-03T01:52:34.006Z,4.10
2019-04-03T01:53:38.486Z,4.25
2019-04-03T01:54:42.968Z,5.77
2019-04-03T01:55:47.439Z,3.70
2019-04-03T01:56:51.921Z,4.83
2019-04-03T01:57:56.396Z,4.70
2019-04-03T01:59:00.944Z,4.50
2019-04-03T02:00:08.112Z,3.90
2019-04-03T02:01:12.753Z,4.33
2019-04-03T02:02:17.300Z,4.72
2019-04-03T02:03:21.919Z,3.70
2019-04-03T02:04:26.431Z,4.28
2019-04-03T02:05:30.988Z,3.98
2019-04-03T02:06:35.749Z,4.15
2019-04-03T02:07:40.225Z,4.20
2019-04-03T02:08:45.303Z,6.58
2019-04-03T02:09:50.056Z,4.67
2019-04-03T02:10:54.852Z,4.40
2019-04-03T02:11:59.347Z,4.33
2019-04-03T02:13:03.903Z,5.77
2019-04-03T02:14:08.452Z,4.37
2019-04-03T02:15:13.194Z,4.28
2019-04-03T02:16:17.719Z,4.40
2019-04-03T02:17:23.910Z,4.17
2019-04-03T02:18:28.592Z,4.27
2019-04-03T02:19:33.064Z,4.10
2019-04-03T02:20:37.606Z,5.10
2019-04-03T02:21:42.125Z,3.70
2019-04-03T02:22:46.631Z,4.20
2019-04-03T02:23:51.166Z,5.60
2019-04-03T02:24:55.642Z,4.30
2019-04-03T02:26:02.030Z,4.45
2019-04-03T02:27:06.295Z,4.67
2019-04-03T02:28:10.768Z,4.25
2019-04-03T02:29:15.241Z,4.07
2019-04-03T02:30:19.919Z,4.07
2019-04-03T02:31:24.626Z,4.07
2019-04-03T02:32:29.259Z,5.10
2019-04-03T02:33:33.978Z,4.50
2019-04-03T02:34:38.580Z,5.17
2019-04-03T02:35:43.154Z,3.90
2019-04-03T02:36:48.023Z,4.60
2019-04-03T02:37:52.503Z,4.23
2019-04-03T02:38:56.974Z,4.43
2019-04-03T02:40:01.454Z,4.67
2019-04-03T02:41:06.241Z,4.62
2019-04-03T02:42:10.790Z,4.40
2019-04-03T02:43:15.563Z,4.60
2019-04-03T02:44:20.222Z,4.20
2019-04-03T02:45:25.023Z,4.40
2019-04-03T02:46:29.841Z,4.35
2019-04-03T02:47:34.733Z,4.28
2019-04-03T02:48:39.564Z,3.90
2019-04-03T02:49:44.087Z,4.35
2019-04-03T02:50:48.894Z,4.45
2019-04-03T02:51:53.888Z,4.20
2019-04-03T02:52:59.251Z,3.97
2019-04-03T02:54:06.372Z,4.40
2019-04-03T02:55:11.016Z,4.70
2019-04-03T02:56:16.085Z,4.28
2019-04-03T02:57:20.858Z,4.10
2019-04-03T02:58:25.888Z,4.10
2019-04-03T02:59:30.511Z,4.40
2019-04-03T03:00:35.322Z,4.30
2019-04-03T03:01:40.525Z,3.85
2019-04-03T03:02:46.125Z,5.60
2019-04-03T03:03:50.869Z,4.28
2019-04-03T03:04:55.709Z,3.67
2019-04-03T03:06:01.351Z,4.30
2019-04-03T03:07:06.434Z,4.17
2019-04-03T03:08:11.548Z,4.30
2019-04-03T03:09:16.311Z,4.07
2019-04-03T03:10:20.869Z,4.17
2019-04-03T03:11:27.258Z,4.08
2019-04-03T03:12:32.047Z,4.77
2019-04-03T03:13:38.092Z,4.90
2019-04-03T03:14:43.203Z,4.17
2019-04-03T03:15:48.671Z,5.75
2019-04-03T03:16:53.304Z,4.65
2019-04-03T03:17:58.389Z,4.30
2019-04-03T03:19:03.091Z,4.95
2019-04-03T03:20:08.223Z,4.40
2019-04-03T03:21:14.330Z,9.03
2019-04-03T03:22:19.881Z,4.25
2019-04-03T03:23:24.574Z,4.80
2019-04-03T03:24:31.787Z,5.00
2019-04-03T03:25:36.763Z,4.70
2019-04-03T03:26:41.775Z,4.75
2019-04-03T03:27:47.511Z,4.20
2019-04-03T03:28:52.435Z,4.60
2019-04-03T03:29:59.707Z,4.80
2019-04-03T03:31:06.385Z,4.47
2019-04-03T03:32:18.843Z,4.28
2019-04-03T03:33:30.106Z,6.77
2019-04-03T03:34:44.941Z,4.35
2019-04-03T03:35:39.523Z,4.50
2019-04-03T03:36:39.130Z,4.10
2019-04-03T03:37:45.642Z,4.28
2019-04-03T03:38:51.065Z,4.87
2019-04-03T03:39:56.281Z,4.60
2019-04-03T03:41:01.006Z,4.37
2019-04-03T03:42:05.540Z,5.37
2019-04-03T03:43:11.058Z,4.30
2019-04-03T03:44:16.327Z,5.00
2019-04-03T03:45:21.720Z,4.93
2019-04-03T03:46:28.696Z,4.12
2019-04-03T03:47:36.387Z,4.60
2019-04-03T03:48:43.635Z,4.17
2019-04-03T03:49:50.188Z,4.22
2019-04-03T03:50:58.045Z,3.92
2019-04-03T03:52:04.013Z,4.73
2019-04-03T03:53:11.766Z,5.17
2019-04-03T03:54:18.396Z,5.27
2019-04-03T03:55:24.287Z,4.37
2019-04-03T03:56:31.590Z,3.93
2019-04-03T03:57:39.210Z,4.80
2019-04-03T03:58:45.727Z,4.10
2019-04-03T03:59:52.475Z,4.22
2019-04-03T04:00:59.768Z,3.95
2019-04-03T04:02:05.726Z,4.47
2019-04-03T04:03:11.308Z,4.33
2019-04-03T04:04:16.629Z,5.00
2019-04-03T04:05:22.862Z,4.47
2019-04-03T04:06:29.480Z,4.67
2019-04-03T04:07:37.487Z,4.13
2019-04-03T04:08:44.088Z,4.72
2019-04-03T04:09:50.539Z,4.50
2019-04-03T04:10:58.074Z,4.83
2019-04-03T04:12:04.557Z,4.20
2019-04-03T04:13:07.458Z,4.03
2019-04-03T04:14:12.700Z,3.67
2019-04-03T04:15:17.809Z,4.80
2019-04-03T04:16:23.159Z,4.90
2019-04-03T04:17:28.287Z,4.10
2019-04-03T04:18:32.872Z,5.58
2019-04-03T04:19:38.050Z,4.78
2019-04-03T04:20:42.642Z,4.10
2019-04-03T04:21:47.416Z,5.50
2019-04-03T04:22:52.132Z,4.37
2019-04-03T04:23:57.409Z,4.27
2019-04-03T04:25:04.263Z,4.17
2019-04-03T04:26:09.134Z,4.20
2019-04-03T04:27:14.155Z,3.93
2019-04-03T04:28:19.077Z,3.67
2019-04-03T04:29:24.575Z,3.80
2019-04-03T04:30:30.203Z,4.13
2019-04-03T04:31:35.065Z,4.10
2019-04-03T04:32:39.752Z,3.60
2019-04-03T04:33:45.761Z,4.40
2019-04-03T04:34:50.646Z,5.45
2019-04-03T04:35:55.431Z,4.12
2019-04-03T04:37:02.158Z,4.33
2019-04-03T04:38:06.212Z,4.08
2019-04-03T04:39:10.747Z,4.85
2019-04-03T04:40:15.361Z,4.50
2019-04-03T04:41:20.400Z,4.20
2019-04-03T04:42:24.918Z,4.03
2019-04-03T04:43:29.400Z,4.47
2019-04-03T04:44:33.857Z,4.20
2019-04-03T04:45:38.337Z,5.03
2019-04-03T04:46:44.548Z,4.40
2019-04-03T04:47:49.040Z,4.30
2019-04-03T04:48:53.536Z,4.28
2019-04-03T04:49:58.042Z,4.65
2019-04-03T04:51:02.582Z,4.30
2019-04-03T04:52:07.284Z,4.28
2019-04-03T04:53:11.742Z,5.08
2019-04-03T04:54:16.253Z,4.95
2019-04-03T04:55:20.860Z,5.65
2019-04-03T04:56:25.473Z,4.05
2019-04-03T04:57:29.982Z,4.30
2019-04-03T04:58:34.660Z,8.90
2019-04-03T04:59:39.146Z,8.07
2019-04-03T05:00:45.063Z,4.00
2019-04-03T05:01:49.800Z,4.27
2019-04-03T05:02:54.402Z,4.53
2019-04-03T05:03:59.330Z,4.30
2019-04-03T05:05:08.479Z,6.23
2019-04-03T05:06:12.172Z,4.20
2019-04-03T05:07:17.411Z,4.30
2019-04-03T05:08:22.068Z,5.03
2019-04-03T05:09:26.530Z,8.10
2019-04-03T05:10:31.480Z,4.70
2019-04-03T05:11:36.847Z,5.47
2019-04-03T05:12:44.490Z,4.28
2019-04-03T05:13:48.404Z,3.92
2019-04-03T05:14:52.883Z,4.55
2019-04-03T05:15:57.457Z,4.97
2019-04-03T05:17:01.919Z,4.63
2019-04-03T05:18:06.488Z,4.73
2019-04-03T05:19:17.882Z,4.20
2019-04-03T05:20:19.546Z,6.37
2019-04-03T05:21:23.635Z,5.13
2019-04-03T05:22:28.375Z,4.87
2019-04-03T05:23:33.145Z,4.80
2019-04-03T05:24:37.700Z,5.30
2019-04-03T05:25:42.249Z,4.27
2019-04-03T05:26:46.858Z,4.67
2019-04-03T05:27:51.392Z,6.40
2019-04-03T05:28:57.645Z,5.33
2019-04-03T05:30:02.037Z,5.10
2019-04-03T05:31:08.134Z,5.15
2019-04-03T05:32:13.044Z,4.62
2019-04-03T05:33:17.558Z,4.78
2019-04-03T05:34:22.432Z,5.33
2019-04-03T05:35:26.948Z,4.33
2019-04-03T05:36:31.431Z,4.40
2019-04-03T05:37:35.930Z,4.40
2019-04-03T05:38:40.485Z,6.77
2019-04-03T05:39:45.239Z,4.07
2019-04-03T05:40:49.894Z,5.80
2019-04-03T05:41:54.593Z,5.80
2019-04-03T05:43:00.148Z,4.30
2019-04-03T05:44:05.192Z,5.78
2019-04-03T05:45:09.755Z,5.77
2019-04-03T05:46:14.216Z,6.60
2019-04-03T05:47:18.763Z,6.10
2019-04-03T05:48:23.317Z,6.58
2019-04-03T05:49:27.795Z,5.25
2019-04-03T05:50:32.369Z,6.80
2019-04-03T05:51:36.913Z,6.15
2019-04-03T05:52:41.549Z,5.65
2019-04-03T05:53:46.021Z,5.85
2019-04-03T05:54:50.497Z,4.80
2019-04-03T05:55:55.159Z,4.93
2019-04-03T05:56:59.946Z,5.30
2019-04-03T05:58:05.159Z,3.93
2019-04-03T05:59:09.895Z,6.27
2019-04-03T06:00:14.913Z,5.63
2019-04-03T06:01:19.428Z,8.37
2019-04-03T06:02:24.029Z,4.83
2019-04-03T06:03:40.140Z,5.50
2019-04-03T06:04:34.938Z,6.23
2019-04-03T06:05:39.431Z,6.00
2019-04-03T06:06:45.899Z,6.33
2019-04-03T06:07:50.577Z,6.95
2019-04-03T06:08:57.010Z,5.62
2019-04-03T06:10:01.520Z,5.72
2019-04-03T06:11:08.914Z,5.47
2019-04-03T06:12:13.921Z,5.45
2019-04-03T06:13:18.781Z,4.83
2019-04-03T06:14:23.986Z,5.23
2019-04-03T06:15:28.712Z,6.27
2019-04-03T06:16:33.234Z,5.40
2019-04-03T06:17:37.941Z,6.03
2019-04-03T06:18:42.463Z,6.53
2019-04-03T06:19:46.934Z,5.77
2019-04-03T06:20:51.685Z,7.07
2019-04-03T06:21:56.239Z,6.30
2019-04-03T06:23:00.920Z,5.70
2019-04-03T06:24:05.557Z,5.43
2019-04-03T06:25:13.524Z,6.57
2019-04-03T06:26:16.882Z,7.12
2019-04-03T06:27:21.353Z,6.17
2019-04-03T06:28:25.891Z,5.70
2019-04-03T06:29:30.413Z,5.25
2019-04-03T06:30:35.063Z,6.45
2019-04-03T06:31:39.709Z,6.28
2019-04-03T06:32:44.449Z,6.13
2019-04-03T06:33:51.129Z,6.80
2019-04-03T06:34:55.258Z,5.60
2019-04-03T06:35:59.839Z,5.67
2019-04-03T06:37:04.763Z,6.50
2019-04-03T06:38:09.594Z,6.37
2019-04-03T06:39:14.497Z,5.33
2019-04-03T06:40:19.231Z,5.03
2019-04-03T06:41:23.896Z,5.53
2019-04-03T06:42:28.608Z,5.40
2019-04-03T06:43:33.100Z,5.63
2019-04-03T06:44:37.602Z,7.10
2019-04-03T06:45:43.995Z,5.08
2019-04-03T06:46:48.326Z,5.00
2019-04-03T06:47:52.924Z,5.35
2019-04-03T06:48:57.418Z,6.10
2019-04-03T06:50:02.250Z,6.70
2019-04-03T06:51:06.718Z,5.45
2019-04-03T06:52:11.211Z,5.17
2019-04-03T06:53:15.668Z,8.17
2019-04-03T06:54:20.140Z,6.77
2019-04-03T06:55:25.570Z,8.03
2019-04-03T06:56:30.397Z,4.97
2019-04-03T06:57:35.202Z,6.67
2019-04-03T06:58:40.357Z,5.30
2019-04-03T06:59:46.524Z,5.87
2019-04-03T07:00:54.432Z,7.07
2019-04-03T07:01:58.133Z,6.13
2019-04-03T07:03:03.855Z,6.10
2019-04-03T07:04:09.254Z,6.58
2019-04-03T07:05:14.087Z,5.85
2019-04-03T07:06:19.015Z,5.33
2019-04-03T07:07:32.985Z,6.67
2019-04-03T07:08:34.953Z,10.18
2019-04-03T07:09:36.949Z,5.77
2019-04-03T07:10:54.269Z,5.15
2019-04-03T07:11:47.995Z,9.03
2019-04-03T07:12:52.736Z,7.33
2019-04-03T07:13:57.332Z,5.58
2019-04-03T07:15:02.204Z,5.62
2019-04-03T07:16:07.072Z,9.18
2019-04-03T07:17:11.771Z,6.62
2019-04-03T07:18:16.383Z,7.23
2019-04-03T07:19:20.953Z,5.97
2019-04-03T07:20:25.502Z,5.27
2019-04-03T07:21:30.003Z,5.60
2019-04-03T07:22:34.545Z,5.65
2019-04-03T07:23:39.099Z,6.40
2019-04-03T07:24:43.887Z,7.85
2019-04-03T07:25:48.434Z,6.92
2019-04-03T07:26:52.975Z,6.67
2019-04-03T07:27:57.468Z,5.55
2019-04-03T07:29:01.934Z,6.53
2019-04-03T07:30:07.754Z,7.42
2019-04-03T07:31:12.225Z,5.93
2019-04-03T07:32:17.133Z,6.07
2019-04-03T07:33:21.958Z,7.03
2019-04-03T07:34:26.660Z,5.83
2019-04-03T07:35:31.422Z,4.83
2019-04-03T07:36:35.967Z,5.17
2019-04-03T07:37:41.116Z,7.83
2019-04-03T07:38:45.629Z,5.87
2019-04-03T07:39:50.536Z,5.22
2019-04-03T07:40:55.170Z,5.13
2019-04-03T07:41:59.777Z,5.50
2019-04-03T07:43:04.375Z,5.97
2019-04-03T07:44:08.879Z,5.47
2019-04-03T07:45:15.453Z,5.20
2019-04-03T07:46:19.945Z,7.17
2019-04-03T07:47:24.411Z,6.62
2019-04-03T07:48:28.896Z,6.15
2019-04-03T07:49:33.666Z,5.78
2019-04-03T07:50:39.782Z,5.12
2019-04-03T07:51:44.541Z,5.33
2019-04-03T07:52:49.087Z,6.05
2019-04-03T07:53:53.617Z,4.80
2019-04-03T07:54:58.171Z,5.30
2019-04-03T07:56:02.889Z,5.93
2019-04-03T07:57:09.807Z,5.65
2019-04-03T07:58:13.600Z,6.07
2019-04-03T07:59:18.390Z,6.23
2019-04-03T08:00:23.441Z,5.73
2019-04-03T08:01:27.988Z,7.33
2019-04-03T08:02:34.241Z,5.47
2019-04-03T08:03:38.668Z,8.60
2019-04-03T08:04:43.171Z,7.00
2019-04-03T08:05:47.635Z,5.23
2019-04-03T08:06:52.195Z,4.97
2019-04-03T08:07:56.679Z,4.87
2019-04-03T08:09:08.521Z,7.30
2019-04-03T08:10:07.834Z,5.95
2019-04-03T08:11:14.856Z,5.42
2019-04-03T08:12:18.575Z,5.78
2019-04-03T08:13:23.261Z,6.33
2019-04-03T08:14:28.095Z,5.67
2019-04-03T08:15:32.915Z,5.33
2019-04-03T08:16:37.421Z,5.73
2019-04-03T08:17:41.925Z,5.80
2019-04-03T08:18:46.422Z,5.50
2019-04-03T08:19:53.714Z,5.80
2019-04-03T08:21:00.890Z,6.77
2019-04-03T08:22:03.324Z,6.10
2019-04-03T08:23:07.784Z,5.50
2019-04-03T08:24:12.277Z,5.62
2019-04-03T08:25:16.783Z,5.57
2019-04-03T08:26:21.255Z,5.87
2019-04-03T08:27:25.771Z,6.03
2019-04-03T08:28:30.785Z,7.73
2019-04-03T08:29:37.923Z,5.83
2019-04-03T08:30:41.527Z,5.67
2019-04-03T08:31:48.403Z,5.85
2019-04-03T08:32:52.179Z,5.47
2019-04-03T08:33:57.140Z,5.75
2019-04-03T08:35:04.633Z,6.92
2019-04-03T08:36:09.290Z,5.87
2019-04-03T08:37:14.051Z,5.70
2019-04-03T08:38:18.693Z,6.57
2019-04-03T08:39:23.172Z,7.90
2019-04-03T08:40:27.758Z,5.33
2019-04-03T08:41:32.369Z,6.00
2019-04-03T08:42:37.079Z,6.17
2019-04-03T08:43:41.837Z,5.87
2019-04-03T08:44:46.308Z,6.00
2019-04-03T08:45:50.777Z,5.73
2019-04-03T08:46:55.273Z,6.37
2019-04-03T08:48:00.401Z,5.87
2019-04-03T08:49:05.211Z,5.67
2019-04-03T08:50:10.918Z,6.13
2019-04-03T08:51:15.455Z,5.83
2019-04-03T08:52:19.955Z,6.65
2019-04-03T08:53:24.537Z,6.20
2019-04-03T08:54:29.008Z,6.33
2019-04-03T08:55:33.581Z,5.85
2019-04-03T08:56:38.072Z,6.80
2019-04-03T08:57:45.645Z,7.85
2019-04-03T08:58:48.735Z,5.75
2019-04-03T08:59:53.210Z,6.50
2019-04-03T09:00:58.221Z,6.60
2019-04-03T09:02:03.034Z,7.43
2019-04-03T09:03:07.637Z,6.23
2019-04-03T09:04:12.132Z,7.60
2019-04-03T09:05:17.017Z,6.63
2019-04-03T09:06:23.442Z,6.10
2019-04-03T09:07:28.016Z,6.10
2019-04-03T09:08:32.521Z,6.23
2019-04-03T09:09:37.234Z,5.77
2019-04-03T09:10:41.761Z,6.93
2019-04-03T09:11:46.251Z,6.07
2019-04-03T09:12:50.730Z,8.67
2019-04-03T09:13:55.783Z,7.87
2019-04-03T09:15:00.937Z,8.83
2019-04-03T09:16:05.692Z,10.57
2019-04-03T09:17:10.234Z,7.10
2019-04-03T09:18:14.711Z,6.53
2019-04-03T09:19:19.865Z,5.80
2019-04-03T09:20:24.418Z,5.67
2019-04-03T09:21:28.894Z,7.47
2019-04-03T09:22:33.368Z,6.70
2019-04-03T09:23:37.855Z,6.97
2019-04-03T09:24:42.404Z,5.57
2019-04-03T09:25:47.187Z,5.70
2019-04-03T09:26:51.961Z,6.40
2019-04-03T09:27:56.500Z,5.87
2019-04-03T09:29:01.097Z,5.30
2019-04-03T09:30:10.675Z,7.17
2019-04-03T09:31:17.163Z,6.10
2019-04-03T09:32:22.720Z,5.27
2019-04-03T09:33:29.363Z,5.60
2019-04-03T09:34:34.321Z,5.23
2019-04-03T09:35:41.200Z,5.43
2019-04-03T09:36:45.683Z,5.30
2019-04-03T09:37:50.231Z,5.47
2019-04-03T09:38:55.084Z,5.33
2019-04-03T09:39:59.882Z,5.87
2019-04-03T09:41:04.694Z,6.37
2019-04-03T09:42:09.293Z,5.53
2019-04-03T09:43:13.791Z,5.57
2019-04-03T09:44:18.300Z,6.03
2019-04-03T09:45:22.840Z,5.80
2019-04-03T09:46:30.306Z,6.07
2019-04-03T09:47:34.792Z,6.17
2019-04-03T09:48:39.486Z,5.60
2019-04-03T09:49:44.352Z,6.87
2019-04-03T09:50:49.168Z,5.57
2019-04-03T09:51:53.850Z,5.43
2019-04-03T09:52:58.417Z,5.73
2019-04-03T09:54:02.968Z,5.60
2019-04-03T09:55:08.484Z,6.90
2019-04-03T09:56:13.161Z,5.43
2019-04-03T09:57:17.857Z,5.47
2019-04-03T09:58:22.324Z,5.43
2019-04-03T09:59:26.963Z,5.90
2019-04-03T10:00:31.865Z,5.83
2019-04-03T10:01:36.477Z,4.93
2019-04-03T10:02:41.536Z,5.83
2019-04-03T10:03:46.195Z,5.33
2019-04-03T10:04:50.675Z,6.20
2019-04-03T10:05:55.330Z,5.67
2019-04-03T10:07:01.898Z,6.60
2019-04-03T10:08:08.464Z,5.70
2019-04-03T10:09:12.751Z,5.10
2019-04-03T10:10:18.224Z,6.07
2019-04-03T10:11:22.738Z,5.63
2019-04-03T10:12:27.208Z,6.33
2019-04-03T10:13:31.729Z,7.40
2019-04-03T10:14:36.189Z,5.50
2019-04-03T10:15:40.759Z,5.43
2019-04-03T10:16:45.312Z,5.67
2019-04-03T10:17:49.784Z,6.20
2019-04-03T10:18:54.305Z,6.77
2019-04-03T10:19:58.807Z,6.00
2019-04-03T10:21:03.330Z,5.87
2019-04-03T10:22:08.018Z,5.67
2019-04-03T10:23:12.496Z,5.13
2019-04-03T10:24:17.535Z,5.95
2019-04-03T10:25:22.212Z,5.53
2019-04-03T10:26:26.824Z,6.33
2019-04-03T10:27:31.365Z,5.70
2019-04-03T10:28:35.851Z,5.80
2019-04-03T10:29:40.359Z,5.43
2019-04-03T10:30:45.102Z,5.77
2019-04-03T10:31:49.681Z,9.20
2019-04-03T10:32:54.196Z,5.53
2019-04-03T10:33:58.666Z,5.27
2019-04-03T10:35:06.611Z,5.60
2019-04-03T10:36:11.407Z,6.10
2019-04-03T10:37:16.227Z,4.73
2019-04-03T10:38:20.757Z,5.70
2019-04-03T10:39:25.558Z,5.33
2019-04-03T10:40:30.312Z,5.10
2019-04-03T10:41:34.842Z,4.90
2019-04-03T10:42:39.453Z,4.97
2019-04-03T10:43:44.249Z,5.47
2019-04-03T10:44:48.809Z,5.60
2019-04-03T10:45:53.353Z,6.20
2019-04-03T10:46:57.819Z,5.43
2019-04-03T10:48:02.282Z,5.87
2019-04-03T10:49:06.878Z,5.37
2019-04-03T10:50:12.191Z,5.13
2019-04-03T10:51:16.680Z,7.93
2019-04-03T10:52:21.148Z,5.70
2019-04-03T10:53:25.616Z,4.93
2019-04-03T10:54:30.510Z,5.63
2019-04-03T10:55:35.115Z,5.50
2019-04-03T10:56:39.807Z,5.53
2019-04-03T10:57:44.320Z,5.63
2019-04-03T10:58:50.410Z,7.17
2019-04-03T10:59:55.255Z,5.97
2019-04-03T11:01:00.328Z,4.83
2019-04-03T11:02:05.200Z,4.30
2019-04-03T11:03:09.770Z,4.33
2019-04-03T11:04:14.495Z,4.07
2019-04-03T11:05:19.385Z,3.97
2019-04-03T11:06:23.851Z,4.00
2019-04-03T11:07:28.340Z,4.20
2019-04-03T11:08:32.806Z,4.07
2019-04-03T11:09:37.277Z,4.27
2019-04-03T11:10:42.016Z,3.90
2019-04-03T11:11:46.675Z,4.77
2019-04-03T11:12:51.167Z,4.37
2019-04-03T11:13:55.638Z,4.20
2019-04-03T11:15:00.390Z,4.70
2019-04-03T11:16:04.945Z,4.50
2019-04-03T11:17:09.756Z,4.10
2019-04-03T11:18:14.348Z,4.10
2019-04-03T11:19:19.840Z,5.93
2019-04-03T11:20:25.039Z,4.27
2019-04-03T11:21:29.757Z,4.00
2019-04-03T11:22:40.406Z,4.40
2019-04-03T11:23:44.307Z,4.13
2019-04-03T11:24:46.712Z,3.83
2019-04-03T11:25:51.520Z,3.80
2019-04-03T11:26:56.260Z,3.80
2019-04-03T11:28:00.831Z,3.73
2019-04-03T11:29:08.739Z,4.60
2019-04-03T11:30:18.782Z,4.30
2019-04-03T11:31:27.454Z,3.93
2019-04-03T11:32:27.770Z,6.80
2019-04-03T11:33:32.246Z,3.10
2019-04-03T11:34:36.841Z,3.83
2019-04-03T11:35:41.690Z,5.73
2019-04-03T11:36:46.165Z,3.90
2019-04-03T11:37:50.671Z,4.03
2019-04-03T11:39:10.716Z,5.03
2019-04-03T11:40:04.953Z,4.30
2019-04-03T11:41:14.458Z,3.97
2019-04-03T11:42:23.732Z,3.87
2019-04-03T11:43:20.907Z,4.20
2019-04-03T11:44:25.690Z,3.87
2019-04-03T11:45:30.506Z,4.60
2019-04-03T11:46:35.449Z,4.50
2019-04-03T11:47:40.286Z,4.77
2019-04-03T11:48:46.061Z,6.17
2019-04-03T11:49:52.488Z,7.00
2019-04-03T11:50:58.092Z,4.40
2019-04-03T11:52:02.943Z,3.87
2019-04-03T11:53:07.862Z,3.47
2019-04-03T11:54:12.878Z,3.80
2019-04-03T11:55:17.845Z,3.37
2019-04-03T11:56:22.343Z,3.23
2019-04-03T11:57:27.292Z,2.87
2019-04-03T11:58:32.374Z,2.47
2019-04-03T11:59:37.247Z,2.40
2019-04-03T12:00:46.434Z,2.30
2019-04-03T12:01:51.234Z,2.60
2019-04-03T12:02:55.833Z,2.03
2019-04-03T12:04:00.539Z,2.93
2019-04-03T12:05:06.667Z,2.93
2019-04-03T12:06:11.221Z,1.93
2019-04-03T12:07:15.756Z,1.90
2019-04-03T12:08:20.569Z,2.20
2019-04-03T12:09:25.294Z,2.27
2019-04-03T12:10:30.067Z,1.93
2019-04-03T12:11:35.981Z,2.03
2019-04-03T12:12:42.070Z,1.73
2019-04-03T12:13:46.995Z,2.07
2019-04-03T12:14:52.414Z,2.17
2019-04-03T12:15:58.720Z,2.20
2019-04-03T12:17:03.409Z,2.20
2019-04-03T12:18:08.031Z,2.00
2019-04-03T12:19:12.501Z,2.20
2019-04-03T12:20:17.316Z,2.00
2019-04-03T12:21:21.768Z,2.37
2019-04-03T12:22:26.296Z,2.95
2019-04-03T12:23:31.227Z,2.10
2019-04-03T12:24:36.225Z,2.27
2019-04-03T12:25:40.710Z,2.20
2019-04-03T12:26:45.291Z,2.00
2019-04-03T12:27:50.002Z,2.20
2019-04-03T12:28:54.809Z,2.30
2019-04-03T12:29:59.601Z,2.10
2019-04-03T12:31:04.360Z,2.10
2019-04-03T12:32:09.825Z,2.13
2019-04-03T12:33:14.893Z,2.77
2019-04-03T12:34:20.502Z,2.98
2019-04-03T12:35:25.622Z,1.97
2019-04-03T12:36:30.255Z,9.13
2019-04-03T12:37:35.224Z,2.30
2019-04-03T12:38:39.987Z,2.50
2019-04-03T12:39:44.503Z,1.90
2019-04-03T12:40:49.093Z,2.20
2019-04-03T12:41:54.945Z,3.07
2019-04-03T12:42:59.990Z,2.03
2019-04-03T12:44:04.509Z,2.10
2019-04-03T12:45:09.541Z,2.20
2019-04-03T12:46:14.222Z,2.33
2019-04-03T12:47:19.459Z,2.63
2019-04-03T12:48:24.210Z,2.10
2019-04-03T12:49:28.987Z,2.50
2019-04-03T12:50:33.888Z,1.97
2019-04-03T12:51:38.983Z,2.10
2019-04-03T12:52:44.905Z,2.00
2019-04-03T12:53:49.904Z,2.43
2019-04-03T12:54:54.703Z,2.00
2019-04-03T12:55:59.648Z,2.00
2019-04-03T12:57:04.564Z,1.93
2019-04-03T12:58:09.197Z,1.57
2019-04-03T12:59:13.867Z,1.60
2019-04-03T13:00:19.383Z,1.50
2019-04-03T13:01:23.964Z,1.60
2019-04-03T13:02:28.466Z,1.87
2019-04-03T13:03:36.081Z,1.40
2019-04-03T13:04:39.360Z,2.23
2019-04-03T13:05:43.912Z,1.50
2019-04-03T13:06:48.792Z,1.37
2019-04-03T13:07:53.406Z,1.17
2019-04-03T13:08:58.486Z,1.77
2019-04-03T13:10:06.652Z,1.40
2019-04-03T13:11:10.932Z,1.30
2019-04-03T13:12:15.487Z,1.77
2019-04-03T13:13:20.426Z,1.17
2019-04-03T13:14:27.197Z,3.70
2019-04-03T13:15:31.671Z,1.03
2019-04-03T13:16:36.543Z,1.83
2019-04-03T13:17:43.568Z,1.10
2019-04-03T13:18:47.511Z,1.10
2019-04-03T13:19:51.980Z,1.17
2019-04-03T13:20:56.803Z,2.23
2019-04-03T13:22:01.401Z,1.27
2019-04-03T13:23:06.257Z,1.70
2019-04-03T13:24:12.543Z,1.10
2019-04-03T13:25:20.219Z,0.90
2019-04-03T13:26:24.747Z,1.00
2019-04-03T13:27:31.782Z,0.90
2019-04-03T13:28:38.409Z,1.03
2019-04-03T13:29:41.913Z,0.90
2019-04-03T13:30:46.452Z,1.10
2019-04-03T13:31:50.956Z,1.23
2019-04-03T13:32:59.554Z,1.00
2019-04-03T13:34:01.714Z,1.00
2019-04-03T13:35:10.286Z,1.00
2019-04-03T13:36:15.151Z,1.00
2019-04-03T13:37:23.256Z,0.93
2019-04-03T13:38:28.933Z,0.90
2019-04-03T13:39:33.737Z,0.70
2019-04-03T13:40:39.233Z,1.40
2019-04-03T13:41:43.815Z,1.17
2019-04-03T13:42:49.484Z,1.10
2019-04-03T13:43:55.051Z,1.00
2019-04-03T13:45:00.214Z,1.43
2019-04-03T13:46:05.124Z,1.30
2019-04-03T13:47:10.002Z,1.20
2019-04-03T13:48:14.541Z,2.10
2019-04-03T13:49:19.629Z,1.07
2019-04-03T13:50:24.712Z,1.00
2019-04-03T13:51:29.193Z,0.90
2019-04-03T13:52:41.404Z,1.50
2019-04-03T13:53:39.935Z,1.23
2019-04-03T13:54:45.479Z,2.90
2019-04-03T13:55:50.299Z,1.20
2019-04-03T13:56:55.219Z,1.13
2019-04-03T13:58:00.051Z,2.97
2019-04-03T13:59:04.898Z,1.27
2019-04-03T14:00:20.686Z,1.20
2019-04-03T14:01:18.986Z,1.10
2019-04-03T14:02:23.467Z,0.90
2019-04-03T14:03:28.094Z,0.80
2019-04-03T14:04:32.788Z,2.53
2019-04-03T14:05:37.276Z,0.80
2019-04-03T14:06:41.760Z,2.70
2019-04-03T14:07:46.223Z,2.53
2019-04-03T14:08:50.702Z,1.20
2019-04-03T14:09:55.908Z,0.83
2019-04-03T14:11:00.602Z,2.63
2019-04-03T14:12:06.371Z,1.10
2019-04-03T14:13:12.537Z,1.00
2019-04-03T14:14:17.947Z,0.93
2019-04-03T14:15:23.083Z,1.27
2019-04-03T14:16:27.880Z,1.60
2019-04-03T14:17:32.408Z,1.10
2019-04-03T14:18:39.774Z,0.85
2019-04-03T14:19:46.304Z,0.90
2019-04-03T14:20:51.497Z,1.10
2019-04-03T14:21:58.840Z,0.80
2019-04-03T14:23:03.981Z,1.10
2019-04-03T14:24:09.246Z,1.50
2019-04-03T14:25:20.619Z,1.97
2019-04-03T14:26:20.567Z,0.70